Time;durP1;ratioP1;P1;durP2;ratioP2;P2;SDS_P1;SDS_P2;PMS_P1;PMS_P2;Temp;Humidity;BMP_temperature;BMP_pressure;BME280_temperature;BME280_humidity;BME280_pressure;Samples;Min_cycle;Max_cycle;Signal;HPM_P1;HPM_P2
2021/10/09 00:01:27;;;;;;;3.75;3.05;;;22.80;48.40;;;;;;5008021;28;20571;-63
2021/10/09 00:03:54;;;;;;;4.07;3.00;;;22.80;48.40;;;;;;5007507;28;20046;-63
2021/10/09 00:06:21;;;;;;;2.85;2.65;;;22.80;48.50;;;;;;4995456;28;20072;-62
2021/10/09 00:08:48;;;;;;;3.45;3.05;;;22.80;48.40;;;;;;5007569;28;20077;-63
2021/10/09 00:11:19;;;;;;;4.35;3.63;;;22.80;48.40;;;;;;5007257;28;20049;-63
2021/10/09 00:13:47;;;;;;;3.63;3.33;;;22.80;48.40;;;;;;5008021;28;20133;-63
2021/10/09 00:16:15;;;;;;;4.18;3.33;;;22.80;48.40;;;;;;4999267;28;20410;-63
2021/10/09 00:18:43;;;;;;;3.35;3.05;;;22.80;48.40;;;;;;5005795;28;20081;-66
2021/10/09 00:21:10;;;;;;;3.63;3.22;;;22.80;48.40;;;;;;5007811;28;20262;-63
2021/10/09 00:23:37;;;;;;;4.00;3.13;;;22.80;48.40;;;;;;5007227;28;20602;-62
2021/10/09 00:26:05;;;;;;;3.63;3.13;;;22.80;48.40;;;;;;4998262;28;20056;-63
2021/10/09 00:28:32;;;;;;;3.33;3.00;;;22.80;48.40;;;;;;5007516;28;20046;-60
2021/10/09 00:30:59;;;;;;;4.20;3.40;;;22.80;48.50;;;;;;5007733;28;20106;-62
2021/10/09 00:33:26;;;;;;;3.47;2.80;;;22.80;48.50;;;;;;5007203;28;20479;-59
2021/10/09 00:35:53;;;;;;;3.60;3.30;;;22.80;48.50;;;;;;4998684;28;20105;-59
2021/10/09 00:38:20;;;;;;;4.05;3.55;;;22.80;48.50;;;;;;5007086;28;20049;-63
2021/10/09 00:40:48;;;;;;;3.38;2.97;;;22.80;48.50;;;;;;5007428;28;20069;-63
2021/10/09 00:43:15;;;;;;;4.07;3.67;;;22.80;48.50;;;;;;5009823;28;20411;-63
2021/10/09 00:45:52;;;;;;;4.95;3.55;;;22.80;48.50;;;;;;5002566;28;20115;-63
2021/10/09 00:48:19;;;;;;;3.63;3.33;;;22.80;48.50;;;;;;5010938;28;20052;-59
2021/10/09 00:50:46;;;;;;;3.78;3.20;;;22.80;48.60;;;;;;5010782;28;20086;-63
2021/10/09 00:53:14;;;;;;;3.53;3.20;;;22.80;48.60;;;;;;5010423;28;20049;-63
2021/10/09 00:55:41;;;;;;;4.53;2.95;;;22.70;48.60;;;;;;5004003;28;20148;-62
2021/10/09 00:58:09;;;;;;;4.80;3.13;;;22.70;48.70;;;;;;4991512;28;20065;-62
2021/10/09 01:00:39;;;;;;;4.05;3.40;;;22.70;48.60;;;;;;5010640;28;20073;-63
2021/10/09 01:03:07;;;;;;;3.58;2.95;;;22.70;48.60;;;;;;5010812;28;20430;-60
2021/10/09 01:05:52;;;;;;;3.33;3.03;;;22.70;48.70;;;;;;5003057;28;20128;-63
2021/10/09 01:08:19;;;;;;;3.83;3.42;;;22.70;48.70;;;;;;5006182;28;20499;-63
2021/10/09 01:10:46;;;;;;;4.00;2.92;;;22.70;48.70;;;;;;5010234;28;20140;-63
2021/10/09 01:13:13;;;;;;;5.72;3.45;;;22.70;48.70;;;;;;5009863;28;20477;-63
2021/10/09 01:15:42;;;;;;;3.47;3.03;;;22.70;48.70;;;;;;5003273;28;20237;-59
2021/10/09 01:18:11;;;;;;;3.70;3.17;;;22.80;48.70;;;;;;5007298;28;20141;-63
2021/10/09 01:20:50;;;;;;;4.38;3.60;;;22.70;48.70;;;;;;5010435;28;20129;-62
2021/10/09 01:23:19;;;;;;;4.23;3.40;;;22.70;48.70;;;;;;5009629;28;20050;-63
2021/10/09 01:25:55;;;;;;;3.60;3.30;;;22.80;48.70;;;;;;5002350;28;20133;-63
2021/10/09 01:28:22;;;;;;;3.40;3.10;;;22.70;48.70;;;;;;5004877;28;20141;-62
2021/10/09 01:30:54;;;;;;;4.75;3.38;;;22.70;48.70;;;;;;5009888;28;20089;-63
2021/10/09 01:33:21;;;;;;;3.97;3.03;;;22.70;48.70;;;;;;5009919;28;20081;-59
2021/10/09 01:35:51;;;;;;;3.50;3.20;;;22.70;48.70;;;;;;4996872;28;20198;-59
2021/10/09 01:38:20;;;;;;;5.03;3.10;;;22.70;48.70;;;;;;5009993;28;20045;-62
2021/10/09 01:40:48;;;;;;;3.58;3.17;;;22.70;48.70;;;;;;5010324;28;20050;-63
2021/10/09 01:43:20;;;;;;;4.18;2.95;;;22.70;48.70;;;;;;5010174;28;20041;-62
2021/10/09 01:45:47;;;;;;;5.28;3.67;;;22.70;48.70;;;;;;4998218;28;20525;-63
2021/10/09 01:48:16;;;;;;;3.85;3.45;;;22.70;48.70;;;;;;5009330;28;20041;-59
2021/10/09 01:50:44;;;;;;;3.35;3.08;;;22.70;48.70;;;;;;5009945;28;20050;-63
2021/10/09 01:53:11;;;;;;;4.30;3.08;;;22.70;48.70;;;;;;5008675;28;20081;-63
2021/10/09 01:55:39;;;;;;;3.65;3.35;;;22.70;48.70;;;;;;4999469;28;20042;-63
2021/10/09 01:58:07;;;;;;;4.32;3.72;;;22.70;48.70;;;;;;5002879;28;20046;-63
2021/10/09 02:00:35;;;;;;;4.35;3.45;;;22.70;48.70;;;;;;5009898;28;20073;-63
2021/10/09 02:03:04;;;;;;;3.80;3.25;;;22.70;48.70;;;;;;5009224;28;20307;-63
2021/10/09 02:05:33;;;;;;;3.85;3.22;;;22.70;48.70;;;;;;5002752;28;20383;-63
2021/10/09 02:08:01;;;;;;;3.53;3.17;;;22.70;48.70;;;;;;5002821;28;20125;-63
2021/10/09 02:10:30;;;;;;;3.33;3.03;;;22.70;48.80;;;;;;5010286;28;20811;-63
2021/10/09 02:13:01;;;;;;;4.75;3.58;;;22.70;48.70;;;;;;5010611;28;20070;-63
2021/10/09 02:15:35;;;;;;;3.20;2.80;;;22.70;48.70;;;;;;5002579;28;20077;-62
2021/10/09 02:26:23;;;;;;;3.80;3.22;;;22.70;48.80;;;;;;5006284;28;20133;-63
2021/10/09 02:28:50;;;;;;;3.88;3.17;;;22.70;48.80;;;;;;5011597;28;20070;-63
2021/10/09 02:31:17;;;;;;;3.45;3.15;;;22.70;48.90;;;;;;5012756;28;20057;-63
2021/10/09 02:33:44;;;;;;;4.30;3.33;;;22.70;48.90;;;;;;5014152;28;20443;-59
2021/10/09 02:36:12;;;;;;;4.65;3.67;;;22.70;48.90;;;;;;4999396;28;20892;-59
2021/10/09 02:38:39;;;;;;;2.78;2.58;;;22.70;48.90;;;;;;5014640;28;20092;-63
2021/10/09 02:41:06;;;;;;;3.28;2.97;;;22.60;48.90;;;;;;5009839;28;20081;-63
2021/10/09 02:43:33;;;;;;;3.05;2.75;;;22.70;49.00;;;;;;5009325;28;20054;-63
2021/10/09 02:46:00;;;;;;;3.45;3.03;;;22.60;49.00;;;;;;4995614;28;20080;-63
2021/10/09 02:48:27;;;;;;;3.70;3.30;;;22.60;49.00;;;;;;5010548;28;20458;-59
2021/10/09 02:50:54;;;;;;;3.13;2.85;;;22.60;49.00;;;;;;5009024;28;20042;-62
2021/10/09 02:53:21;;;;;;;3.63;3.15;;;22.60;49.00;;;;;;5009215;28;20117;-63
2021/10/09 02:59:12;;;;;;;5.13;3.13;;;22.60;49.00;;;;;;4988159;28;20060;-63
2021/10/09 03:01:39;;;;;;;3.00;2.75;;;22.60;49.00;;;;;;4989451;28;20064;-63
2021/10/09 03:04:06;;;;;;;3.45;3.13;;;22.60;49.00;;;;;;4988162;28;20047;-62
2021/10/09 03:06:33;;;;;;;3.75;2.90;;;22.60;49.00;;;;;;5000798;28;20049;-59
2021/10/09 03:09:01;;;;;;;3.88;3.30;;;22.60;49.00;;;;;;5009459;28;20132;-62
2021/10/09 03:11:28;;;;;;;3.17;2.83;;;22.60;48.90;;;;;;5008742;28;20053;-61
2021/10/09 03:13:55;;;;;;;6.50;3.20;;;22.60;48.90;;;;;;5009193;28;20726;-63
2021/10/09 03:16:24;;;;;;;3.20;2.90;;;22.60;48.90;;;;;;5003148;28;20530;-62
2021/10/09 03:18:51;;;;;;;3.53;3.20;;;22.60;49.50;;;;;;5006405;28;20042;-60
2021/10/09 03:21:20;;;;;;;3.28;2.97;;;22.60;48.90;;;;;;5009451;28;20049;-62
2021/10/09 03:23:47;;;;;;;3.30;2.78;;;22.60;48.90;;;;;;5009349;28;20084;-62
2021/10/09 03:26:14;;;;;;;3.33;2.88;;;22.60;48.90;;;;;;5000154;28;20046;-62
2021/10/09 03:28:41;;;;;;;3.08;2.72;;;22.60;48.90;;;;;;5007570;28;20136;-62
2021/10/09 03:31:08;;;;;;;2.97;2.78;;;22.60;48.90;;;;;;5009288;28;20128;-63
2021/10/09 03:33:37;;;;;;;3.40;3.10;;;22.60;48.90;;;;;;5008927;28;20508;-59
2021/10/09 03:36:05;;;;;;;4.40;3.00;;;22.60;48.90;;;;;;5000335;28;20470;-63
2021/10/09 03:38:33;;;;;;;3.05;2.58;;;22.60;48.90;;;;;;5005792;28;20052;-63
2021/10/09 03:41:07;;;;;;;4.70;3.00;;;22.60;48.90;;;;;;5009539;28;20077;-63
2021/10/09 03:43:34;;;;;;;3.30;3.00;;;22.60;48.90;;;;;;5009085;28;20760;-63
2021/10/09 03:48:57;;;;;;;3.80;3.33;;;22.60;48.90;;;;;;5007539;28;20446;-59
2021/10/09 03:54:12;;;;;;;3.17;2.88;;;22.60;48.90;;;;;;5008870;28;20169;-63
2021/10/09 03:56:39;;;;;;;3.53;2.97;;;22.60;48.90;;;;;;4996279;28;20054;-62
2021/10/09 03:59:06;;;;;;;3.08;2.78;;;22.60;48.90;;;;;;5008233;28;20050;-63
2021/10/09 04:01:33;;;;;;;4.18;3.45;;;22.60;48.90;;;;;;5008623;28;20084;-62
2021/10/09 04:04:00;;;;;;;5.30;2.70;;;22.60;48.90;;;;;;5008141;28;20053;-59
2021/10/09 04:06:39;;;;;;;3.60;2.97;;;22.60;48.90;;;;;;4997027;28;20073;-62
2021/10/09 04:09:06;;;;;;;3.08;2.78;;;22.60;48.90;;;;;;5008403;28;20057;-62
2021/10/09 04:11:33;;;;;;;4.05;2.80;;;22.60;48.90;;;;;;5008881;28;20134;-63
2021/10/09 04:14:00;;;;;;;2.92;2.63;;;22.60;48.90;;;;;;5009092;28;20069;-62
2021/10/09 04:16:27;;;;;;;3.60;3.05;;;22.60;48.90;;;;;;5004183;28;20569;-62
2021/10/09 04:18:55;;;;;;;3.25;2.95;;;22.60;49.00;;;;;;5012568;28;20078;-59
2021/10/09 04:21:22;;;;;;;3.67;2.85;;;22.60;49.00;;;;;;5012544;28;20068;-63
2021/10/09 04:23:49;;;;;;;3.42;3.13;;;22.60;49.10;;;;;;5012909;28;20430;-63
2021/10/09 04:26:16;;;;;;;4.10;2.85;;;22.50;49.00;;;;;;4999753;28;20526;-62
2021/10/09 04:28:43;;;;;;;3.63;3.17;;;22.50;49.00;;;;;;5012438;28;20396;-62
2021/10/09 04:31:10;;;;;;;3.10;2.78;;;22.50;49.00;;;;;;5012514;28;20048;-63
2021/10/09 04:33:37;;;;;;;3.95;3.33;;;22.50;49.00;;;;;;5012795;28;20046;-63
2021/10/09 04:36:05;;;;;;;4.03;3.20;;;22.50;49.00;;;;;;5011870;28;20076;-63
2021/10/09 04:38:32;;;;;;;2.60;2.40;;;22.50;49.00;;;;;;5012395;28;20128;-62
2021/10/09 04:40:59;;;;;;;3.28;2.88;;;22.60;49.10;;;;;;5012282;28;20349;-63
2021/10/09 04:43:26;;;;;;;4.88;3.33;;;22.60;49.10;;;;;;5012286;28;20150;-63
2021/10/09 04:45:53;;;;;;;3.25;2.80;;;22.50;49.10;;;;;;5012396;28;20050;-62
2021/10/09 04:48:20;;;;;;;3.78;2.92;;;22.50;49.00;;;;;;5011672;28;20710;-62
2021/10/09 04:50:47;;;;;;;3.47;3.08;;;22.50;49.00;;;;;;5011721;28;20141;-62
2021/10/09 04:53:14;;;;;;;3.20;2.70;;;22.60;49.00;;;;;;5011732;28;20080;-63
2021/10/09 04:55:42;;;;;;;3.22;2.92;;;22.50;49.00;;;;;;5011579;28;20045;-63
2021/10/09 04:58:09;;;;;;;3.47;2.83;;;22.60;49.10;;;;;;5011794;28;20133;-62
2021/10/09 05:00:36;;;;;;;3.55;2.88;;;22.60;49.00;;;;;;5010664;28;20042;-62
2021/10/09 05:03:04;;;;;;;3.40;2.88;;;22.60;49.00;;;;;;5011983;28;20104;-63
2021/10/09 05:05:31;;;;;;;2.55;2.33;;;22.60;49.00;;;;;;5011576;28;20329;-63
2021/10/09 05:07:59;;;;;;;3.88;2.78;;;22.50;48.80;;;;;;5011021;28;20088;-63
2021/10/09 05:10:28;;;;;;;4.15;2.83;;;22.60;48.40;;;;;;5011410;28;20045;-63
2021/10/09 05:13:04;;;;;;;2.92;2.70;;;22.60;48.20;;;;;;5011222;28;20714;-62
2021/10/09 05:15:31;;;;;;;4.40;3.30;;;22.50;48.00;;;;;;5011897;28;20565;-63
2021/10/09 05:17:59;;;;;;;4.80;2.92;;;22.60;47.90;;;;;;5011120;28;20145;-62
2021/10/09 05:20:26;;;;;;;4.00;3.15;;;22.60;47.70;;;;;;5011818;28;20042;-62
2021/10/09 05:22:53;;;;;;;3.85;3.15;;;22.60;47.60;;;;;;5011078;28;20045;-62
2021/10/09 05:25:25;;;;;;;4.47;2.92;;;22.60;47.60;;;;;;5011353;28;20049;-62
2021/10/09 05:28:01;;;;;;;4.07;2.90;;;22.60;47.50;;;;;;5010538;28;20463;-62
2021/10/09 05:30:33;;;;;;;3.25;2.95;;;22.50;47.40;;;;;;5010785;28;20054;-62
2021/10/09 05:35:48;;;;;;;3.40;3.08;;;22.50;47.40;;;;;;5011448;28;20465;-62
2021/10/09 05:38:15;;;;;;;3.15;2.78;;;22.50;47.30;;;;;;5010885;28;20072;-63
2021/10/09 05:40:42;;;;;;;2.60;2.40;;;22.50;47.30;;;;;;4991748;28;20490;-63
2021/10/09 05:43:09;;;;;;;3.70;3.08;;;22.50;47.20;;;;;;4990961;28;20106;-63
2021/10/09 05:45:37;;;;;;;3.22;2.80;;;22.50;47.20;;;;;;4992178;28;20078;-63
2021/10/09 05:48:05;;;;;;;3.03;2.75;;;22.50;47.10;;;;;;4990223;28;20084;-63
2021/10/09 05:50:43;;;;;;;3.55;2.90;;;22.40;46.90;;;;;;5000702;28;20473;-62
2021/10/09 05:56:05;;;;;;;3.08;2.78;;;22.40;46.80;;;;;;5001281;28;20038;-59
2021/10/09 05:58:45;;;;;;;3.47;3.17;;;22.40;46.70;;;;;;5007669;28;20115;-62
2021/10/09 06:01:42;;;;;;;4.03;3.03;;;22.50;46.70;;;;;;5010433;28;20140;-62
2021/10/09 08:07:56;;;;;;;4.63;3.70;;;23.40;42.20;;;;;;5633862;24;19925;-57
2021/10/09 08:10:24;;;;;;;4.78;3.35;;;23.40;42.10;;;;;;4797110;29;20053;-58
2021/10/09 08:12:51;;;;;;;4.65;3.70;;;23.40;42.00;;;;;;4805333;24;20403;-65
2021/10/09 08:15:18;;;;;;;4.82;3.60;;;23.40;42.00;;;;;;4781272;29;20907;-64
2021/10/09 08:17:45;;;;;;;4.80;3.20;;;23.40;41.90;;;;;;4798413;29;20047;-64
2021/10/09 08:22:58;;;;;;;4.35;3.38;;;23.40;41.70;;;;;;5808954;24;20021;-58
2021/10/09 08:36:37;;;;;;;4.97;3.75;;;23.50;41.30;;;;;;4766861;29;20055;-59
2021/10/09 08:39:07;;;;;;;5.05;3.70;;;23.50;41.20;;;;;;4783395;29;20059;-58
2021/10/09 08:41:49;;;;;;;4.75;3.50;;;23.50;41.10;;;;;;4783331;29;20087;-58
2021/10/09 08:44:16;;;;;;;4.60;3.80;;;23.50;41.10;;;;;;4782791;29;20047;-58
2021/10/09 08:46:43;;;;;;;5.63;3.53;;;23.60;41.00;;;;;;4766390;29;20051;-59
2021/10/09 08:49:10;;;;;;;5.15;3.90;;;23.60;41.00;;;;;;4782807;29;20052;-59
2021/10/09 08:51:39;;;;;;;4.28;3.00;;;23.60;40.90;;;;;;4783189;29;20614;-59
2021/10/09 08:54:09;;;;;;;4.57;3.30;;;23.60;40.90;;;;;;4783264;29;20232;-58
2021/10/09 08:56:44;;;;;;;3.40;3.10;;;23.60;40.80;;;;;;4766614;29;20085;-59
2021/10/09 08:59:25;;;;;;;4.53;3.40;;;23.60;40.70;;;;;;4784432;29;20125;-59
2021/10/09 09:02:12;;;;;;;4.97;3.45;;;23.70;40.70;;;;;;4782819;29;20108;-59
2021/10/09 09:05:03;;;;;;;3.75;3.33;;;23.70;40.60;;;;;;4777700;29;20363;-58
2021/10/09 09:07:48;;;;;;;4.20;3.30;;;23.70;40.60;;;;;;4774092;29;20584;-59
2021/10/09 09:27:28;;;;;;;3.97;3.05;;;23.90;40.00;;;;;;4775329;29;20079;-59
2021/10/09 09:36:48;;;;;;;4.22;3.40;;;24.00;39.80;;;;;;4766862;29;20051;-58
2021/10/09 09:41:48;;;;;;;3.58;3.22;;;24.00;39.60;;;;;;4783291;29;20270;-58
2021/10/09 09:44:18;;;;;;;4.30;3.22;;;24.10;39.60;;;;;;4783084;29;20086;-59
2021/10/09 09:47:06;;;;;;;4.20;3.22;;;24.10;39.60;;;;;;4767442;29;20081;-59
2021/10/09 09:49:54;;;;;;;4.45;3.20;;;24.10;39.50;;;;;;4781899;29;20493;-59
2021/10/09 09:52:22;;;;;;;4.13;3.25;;;24.10;39.50;;;;;;4783368;29;20062;-59
2021/10/09 09:54:51;;;;;;;4.95;3.63;;;24.10;39.50;;;;;;4777700;29;20091;-58
2021/10/09 09:57:20;;;;;;;5.80;3.55;;;24.10;39.40;;;;;;4772971;29;20055;-58
2021/10/09 09:59:51;;;;;;;4.90;3.85;;;24.10;39.30;;;;;;4783421;29;20091;-59
2021/10/09 10:02:20;;;;;;;6.05;4.25;;;24.10;39.30;;;;;;4782509;29;20699;-59
2021/10/09 10:04:49;;;;;;;4.30;3.90;;;24.10;39.20;;;;;;4776279;29;20162;-58
2021/10/09 10:07:17;;;;;;;3.72;3.17;;;24.10;39.20;;;;;;4772778;29;20707;-59
2021/10/09 10:09:44;;;;;;;5.22;3.42;;;24.20;39.20;;;;;;4783043;29;20126;-58
2021/10/09 10:12:11;;;;;;;4.30;3.90;;;24.20;39.10;;;;;;4782967;29;20132;-59
2021/10/09 10:14:42;;;;;;;4.70;3.65;;;24.30;39.10;;;;;;4776000;29;20134;-59
2021/10/09 10:17:09;;;;;;;4.20;3.55;;;24.30;39.10;;;;;;4773031;29;20082;-59
2021/10/09 10:19:57;;;;;;;4.57;3.35;;;24.30;39.00;;;;;;4782431;29;20150;-59
2021/10/09 10:22:55;;;;;;;4.70;3.78;;;24.30;39.00;;;;;;4781350;30;20489;-59
2021/10/09 10:25:31;;;;;;;4.60;3.47;;;24.30;39.00;;;;;;4761518;29;20051;-59
2021/10/09 10:28:13;;;;;;;5.07;3.67;;;24.30;39.00;;;;;;4777504;29;20095;-59
2021/10/09 10:30:44;;;;;;;5.95;3.72;;;24.30;39.00;;;;;;4782925;29;20085;-58
2021/10/09 10:33:49;;;;;;;4.72;3.63;;;24.30;39.00;;;;;;4782054;29;20059;-58
2021/10/09 10:36:38;;;;;;;4.47;3.97;;;24.30;39.00;;;;;;4766794;29;20134;-58
2021/10/09 10:39:09;;;;;;;6.43;4.00;;;24.30;39.00;;;;;;4783388;29;20059;-58
2021/10/09 10:41:52;;;;;;;4.53;3.67;;;24.30;39.00;;;;;;4783266;29;20096;-58
2021/10/09 10:44:47;;;;;;;4.13;3.70;;;24.30;38.90;;;;;;4781853;29;20120;-58
2021/10/09 10:48:01;;;;;;;4.50;3.78;;;24.30;38.90;;;;;;4773044;29;20061;-59
2021/10/09 10:51:01;;;;;;;4.07;3.40;;;24.30;38.90;;;;;;4774893;30;20063;-58
2021/10/09 10:54:15;;;;;;;5.17;3.77;;;24.30;39.40;;;;;;4780404;29;20102;-58
2021/10/09 10:57:21;;;;;;;5.20;4.07;;;24.40;38.80;;;;;;4770516;29;20134;-58
2021/10/09 10:59:52;;;;;;;4.45;3.53;;;24.40;38.80;;;;;;4771249;30;20408;-58
2021/10/09 11:02:30;;;;;;;5.82;4.25;;;24.50;38.80;;;;;;4779975;30;20063;-58
2021/10/09 11:05:03;;;;;;;5.30;3.85;;;24.50;38.70;;;;;;4777889;29;20338;-58
2021/10/09 11:07:33;;;;;;;5.50;3.70;;;24.50;38.60;;;;;;4768512;30;20079;-59
2021/10/09 11:10:08;;;;;;;5.57;3.88;;;24.50;38.60;;;;;;4776432;29;20082;-59
2021/10/09 11:12:38;;;;;;;5.13;3.60;;;24.50;38.60;;;;;;4772087;30;20198;-59
2021/10/09 11:15:22;;;;;;;4.65;3.65;;;24.50;38.60;;;;;;4774330;29;20243;-59
2021/10/09 11:18:01;;;;;;;5.93;4.10;;;24.50;38.60;;;;;;4776263;29;20097;-59
2021/10/09 11:20:41;;;;;;;4.40;3.55;;;24.50;38.60;;;;;;4779352;29;20519;-58
2021/10/09 11:23:13;;;;;;;6.18;4.60;;;24.50;38.50;;;;;;4781457;29;20052;-58
2021/10/09 11:25:45;;;;;;;4.97;3.97;;;24.50;38.50;;;;;;4769008;29;20055;-59
2021/10/09 11:28:20;;;;;;;4.35;3.80;;;24.50;38.40;;;;;;4764093;30;20089;-59
2021/10/09 11:30:53;;;;;;;4.20;3.55;;;24.50;38.40;;;;;;4780497;29;20601;-59
2021/10/09 11:33:25;;;;;;;5.03;3.60;;;24.50;38.90;;;;;;4781252;30;20108;-59
2021/10/09 11:35:56;;;;;;;4.47;3.75;;;24.50;38.40;;;;;;4773747;29;20062;-59
2021/10/09 11:38:27;;;;;;;5.07;4.00;;;24.50;38.40;;;;;;4781364;29;20470;-59
2021/10/09 11:41:05;;;;;;;4.53;3.97;;;24.50;38.30;;;;;;4779549;29;20058;-58
2021/10/09 11:43:49;;;;;;;3.97;3.35;;;24.50;38.30;;;;;;4779794;29;20075;-58
2021/10/09 11:55:19;;;;;;;4.20;3.80;;;24.60;38.10;;;;;;4772853;29;20151;-59
2021/10/09 11:57:47;;;;;;;6.53;4.60;;;24.70;38.20;;;;;;4778058;29;20131;-59
2021/10/09 12:00:37;;;;;;;5.18;3.40;;;24.60;38.10;;;;;;4763685;30;20131;-59
2021/10/09 12:03:35;;;;;;;5.18;3.90;;;24.60;38.10;;;;;;4774860;29;20051;-59
2021/10/09 12:06:10;;;;;;;4.70;3.83;;;24.60;38.10;;;;;;4758431;29;20579;-59
2021/10/09 12:08:48;;;;;;;4.20;3.80;;;24.60;38.10;;;;;;4779940;29;20130;-58
2021/10/09 12:11:29;;;;;;;5.45;4.05;;;24.60;38.10;;;;;;4779618;30;20083;-59
2021/10/09 12:14:00;;;;;;;4.15;3.75;;;24.50;38.10;;;;;;4777396;29;20134;-58
2021/10/09 12:16:31;;;;;;;3.90;3.50;;;24.50;38.10;;;;;;4761529;29;20051;-58
2021/10/09 12:19:04;;;;;;;4.22;3.83;;;24.50;38.20;;;;;;4750374;30;20075;-58
2021/10/09 12:21:38;;;;;;;4.60;3.80;;;24.50;38.10;;;;;;4781036;29;20055;-59
2021/10/09 12:24:17;;;;;;;5.72;3.40;;;24.50;38.20;;;;;;4781471;29;20141;-59
2021/10/09 12:27:12;;;;;;;4.68;3.65;;;24.50;38.10;;;;;;4751322;30;20058;-58
2021/10/09 12:30:03;;;;;;;3.92;3.50;;;24.50;38.10;;;;;;4777949;29;20066;-59
2021/10/09 12:32:40;;;;;;;5.00;4.20;;;24.50;38.00;;;;;;4774090;29;20048;-59
2021/10/09 12:35:22;;;;;;;5.38;3.95;;;24.50;38.00;;;;;;4765346;30;20051;-58
2021/10/09 12:38:03;;;;;;;4.65;3.88;;;24.50;38.00;;;;;;4778361;29;20142;-59
2021/10/09 12:40:48;;;;;;;3.65;3.35;;;24.50;38.00;;;;;;4784545;29;20047;-59
2021/10/09 12:43:20;;;;;;;3.92;3.53;;;24.50;37.90;;;;;;4783395;29;20108;-58
2021/10/09 12:45:47;;;;;;;4.40;3.72;;;24.50;37.90;;;;;;4760300;29;20646;-58
2021/10/09 12:48:17;;;;;;;3.80;3.50;;;24.50;37.80;;;;;;4787411;29;20059;-58
2021/10/09 12:50:44;;;;;;;4.75;3.88;;;24.40;37.80;;;;;;4776253;30;20055;-58
2021/10/09 12:53:11;;;;;;;6.22;3.97;;;24.50;37.80;;;;;;4782179;29;20584;-59
2021/10/09 12:55:40;;;;;;;5.53;3.63;;;24.50;37.70;;;;;;4773392;29;20164;-59
2021/10/09 12:58:09;;;;;;;5.13;4.25;;;24.50;37.70;;;;;;4775623;29;20134;-58
2021/10/09 13:00:38;;;;;;;4.10;3.28;;;24.50;37.60;;;;;;4780369;30;20055;-59
2021/10/09 13:03:06;;;;;;;3.55;3.22;;;24.50;37.60;;;;;;4781849;29;20047;-59
2021/10/09 13:05:34;;;;;;;4.35;3.95;;;24.50;37.50;;;;;;4765678;29;20059;-58
2021/10/09 13:08:02;;;;;;;4.43;3.53;;;24.50;37.40;;;;;;4792156;29;20091;-59
2021/10/09 13:10:34;;;;;;;4.32;3.90;;;24.50;37.40;;;;;;4783021;29;20535;-59
2021/10/09 13:13:01;;;;;;;4.45;3.72;;;24.50;37.30;;;;;;4782218;29;20055;-59
2021/10/09 13:15:28;;;;;;;5.65;3.33;;;24.50;37.30;;;;;;4771175;29;20051;-59
2021/10/09 13:17:55;;;;;;;3.85;3.42;;;24.50;37.30;;;;;;4776899;29;20060;-58
2021/10/09 13:20:27;;;;;;;4.28;3.88;;;24.50;37.20;;;;;;4777361;30;20047;-59
2021/10/09 13:22:54;;;;;;;4.85;3.83;;;24.50;37.20;;;;;;4774462;29;20474;-58
2021/10/09 13:25:30;;;;;;;4.88;4.32;;;24.50;37.20;;;;;;4767664;29;20779;-62
2021/10/09 13:27:58;;;;;;;4.82;4.00;;;24.50;37.20;;;;;;4770384;29;20498;-58
2021/10/09 13:30:25;;;;;;;4.38;3.55;;;24.50;37.10;;;;;;4782529;30;20513;-60
2021/10/09 13:32:53;;;;;;;5.38;3.47;;;24.50;37.10;;;;;;4781732;29;20134;-58
2021/10/09 13:35:20;;;;;;;4.20;3.75;;;24.50;37.10;;;;;;4768892;29;20517;-58
2021/10/09 13:37:53;;;;;;;5.93;3.95;;;24.50;37.00;;;;;;4785625;29;20597;-59
2021/10/09 13:40:21;;;;;;;3.75;3.42;;;24.50;37.00;;;;;;4779308;30;20194;-59
2021/10/09 13:42:48;;;;;;;4.38;3.40;;;24.50;36.90;;;;;;4765705;29;20043;-58
2021/10/09 13:45:16;;;;;;;5.00;3.60;;;24.50;37.00;;;;;;4771773;29;20104;-59
2021/10/09 13:47:43;;;;;;;4.00;3.40;;;24.50;37.00;;;;;;4774203;29;20083;-59
2021/10/09 13:50:15;;;;;;;3.97;3.58;;;24.50;37.00;;;;;;4774034;29;20055;-59
2021/10/09 13:52:42;;;;;;;3.95;3.40;;;24.50;36.90;;;;;;4782028;30;20058;-58
2021/10/09 13:55:09;;;;;;;4.45;3.58;;;24.50;37.20;;;;;;4777385;29;20406;-59
2021/10/09 13:57:37;;;;;;;4.03;3.03;;;24.50;37.00;;;;;;4772373;29;20649;-59
2021/10/09 14:00:04;;;;;;;3.95;3.55;;;24.50;36.90;;;;;;4764187;30;20349;-59
2021/10/09 14:02:31;;;;;;;4.30;3.88;;;24.50;37.00;;;;;;4764932;30;20346;-59
2021/10/09 14:04:59;;;;;;;4.95;3.75;;;24.50;37.00;;;;;;4767348;29;20059;-58
2021/10/09 14:07:27;;;;;;;4.35;3.75;;;24.50;36.90;;;;;;4772986;29;20108;-58
2021/10/09 14:09:54;;;;;;;4.22;3.42;;;24.50;36.80;;;;;;4783485;29;20055;-58
2021/10/09 14:12:21;;;;;;;4.15;3.75;;;24.50;36.80;;;;;;4780775;29;20128;-58
2021/10/09 14:14:48;;;;;;;4.38;3.05;;;24.50;36.80;;;;;;4774706;29;20063;-59
2021/10/09 14:17:16;;;;;;;4.20;3.72;;;24.50;36.80;;;;;;4766630;29;20063;-58
2021/10/09 14:20:04;;;;;;;3.97;3.10;;;24.50;36.70;;;;;;4778639;29;20047;-59
2021/10/09 14:22:32;;;;;;;3.90;3.40;;;24.50;36.80;;;;;;4782878;30;20685;-59
2021/10/09 14:25:00;;;;;;;4.03;3.63;;;24.50;36.80;;;;;;4772441;29;20435;-59
2021/10/09 14:27:30;;;;;;;3.90;3.55;;;24.50;36.80;;;;;;4777318;29;20145;-58
2021/10/09 14:29:58;;;;;;;4.38;3.58;;;24.40;36.70;;;;;;4784349;29;20513;-58
2021/10/09 14:32:26;;;;;;;4.05;3.58;;;24.40;36.80;;;;;;4784400;29;20051;-58
2021/10/09 14:34:54;;;;;;;4.57;3.50;;;24.40;36.80;;;;;;4777723;29;20394;-58
2021/10/09 14:37:21;;;;;;;4.97;3.83;;;24.40;36.80;;;;;;4773874;29;20059;-58
2021/10/09 14:39:49;;;;;;;4.53;3.75;;;24.40;36.80;;;;;;4783736;29;20070;-59
2021/10/09 14:42:17;;;;;;;3.55;3.20;;;24.30;36.80;;;;;;4782920;29;20083;-58
2021/10/09 14:44:45;;;;;;;5.43;3.90;;;24.30;36.80;;;;;;4776221;29;20062;-59
2021/10/09 14:47:35;;;;;;;3.70;3.40;;;24.30;36.90;;;;;;4754124;30;20428;-59
2021/10/09 14:50:07;;;;;;;3.63;3.25;;;24.30;36.90;;;;;;4765900;30;20134;-58
2021/10/09 14:53:01;;;;;;;3.72;3.30;;;24.30;36.90;;;;;;4764799;30;20574;-59
2021/10/09 14:55:56;;;;;;;3.28;2.97;;;24.20;36.90;;;;;;4761075;30;20165;-58
2021/10/09 15:01:48;;;;;;;3.95;3.40;;;24.20;37.00;;;;;;4783019;29;20057;-59
2021/10/09 15:20:40;;;;;;;5.60;3.92;;;24.00;37.00;;;;;;4783486;29;20134;-59
2021/10/09 15:23:08;;;;;;;4.65;3.40;;;24.10;37.10;;;;;;4781840;29;20087;-59
2021/10/09 15:25:36;;;;;;;7.07;4.63;;;24.10;37.10;;;;;;4773559;29;20147;-59
2021/10/09 15:28:03;;;;;;;4.78;3.63;;;24.00;37.10;;;;;;4773342;30;20067;-59
2021/10/09 15:30:31;;;;;;;3.58;3.28;;;24.00;37.10;;;;;;4765183;30;20051;-59
2021/10/09 15:32:58;;;;;;;4.05;3.50;;;24.00;37.10;;;;;;4764126;30;20075;-59
2021/10/09 15:35:26;;;;;;;3.95;3.42;;;24.00;37.20;;;;;;4759091;30;20267;-59
2021/10/09 15:37:53;;;;;;;5.05;4.55;;;23.90;37.20;;;;;;4776064;29;20596;-59
2021/10/09 15:40:20;;;;;;;5.70;4.57;;;23.90;37.30;;;;;;4781732;29;20328;-59
2021/10/09 15:42:49;;;;;;;4.30;3.90;;;23.90;37.40;;;;;;4781973;29;20047;-59
2021/10/09 15:45:19;;;;;;;4.82;4.35;;;23.80;37.40;;;;;;4770816;29;20062;-59
2021/10/09 15:47:47;;;;;;;4.72;4.32;;;23.80;37.40;;;;;;4776223;29;20079;-59
2021/10/09 15:50:14;;;;;;;6.25;4.72;;;23.80;37.50;;;;;;4781667;29;20062;-59
2021/10/09 15:52:41;;;;;;;5.18;4.55;;;23.70;37.60;;;;;;4780442;30;20051;-59
2021/10/09 15:55:10;;;;;;;6.00;4.78;;;23.70;37.60;;;;;;4774214;29;20081;-59
2021/10/09 15:57:37;;;;;;;5.65;5.15;;;23.70;37.70;;;;;;4776252;29;20174;-59
2021/10/09 16:00:07;;;;;;;4.70;4.25;;;23.60;37.70;;;;;;4781467;29;20138;-59
2021/10/09 16:02:35;;;;;;;5.90;4.85;;;23.60;37.80;;;;;;4781704;29;20079;-59
2021/10/09 16:05:06;;;;;;;5.50;4.25;;;23.60;37.90;;;;;;4774900;29;20051;-59
2021/10/09 16:07:36;;;;;;;4.95;4.07;;;23.50;37.90;;;;;;4773069;29;20153;-59
2021/10/09 16:10:05;;;;;;;5.35;4.55;;;23.50;38.00;;;;;;4781442;29;20139;-60
2021/10/09 16:12:34;;;;;;;5.25;4.68;;;23.50;38.10;;;;;;4782848;29;20135;-59
2021/10/09 16:15:02;;;;;;;4.65;3.78;;;23.50;38.30;;;;;;4773292;29;20059;-60
2021/10/09 16:17:31;;;;;;;4.20;3.83;;;23.50;38.30;;;;;;4773827;30;20134;-59
2021/10/09 16:19:58;;;;;;;5.63;4.03;;;23.40;38.40;;;;;;4784814;29;20139;-59
2021/10/09 16:22:26;;;;;;;4.82;4.20;;;23.40;38.50;;;;;;4784858;29;20306;-59
2021/10/09 16:24:53;;;;;;;4.28;3.88;;;23.40;38.70;;;;;;4777665;29;20582;-59
2021/10/09 16:27:22;;;;;;;4.55;4.15;;;23.30;38.80;;;;;;4776120;29;20712;-59
2021/10/09 16:29:49;;;;;;;4.57;4.18;;;23.30;38.80;;;;;;4784375;29;20146;-59
2021/10/09 16:32:19;;;;;;;6.90;4.32;;;23.30;38.90;;;;;;4784673;29;20058;-63
2021/10/09 16:34:46;;;;;;;5.80;4.47;;;23.30;39.00;;;;;;4777702;29;20271;-59
2021/10/09 16:37:14;;;;;;;5.90;4.30;;;23.30;39.10;;;;;;4774095;29;20090;-59
2021/10/09 16:39:41;;;;;;;5.45;4.13;;;23.20;39.20;;;;;;4784061;29;20577;-59
2021/10/09 16:42:08;;;;;;;5.25;4.57;;;23.20;39.20;;;;;;4784643;29;20086;-59
2021/10/09 16:44:38;;;;;;;4.82;4.05;;;23.20;39.30;;;;;;4777698;29;20098;-59